Time;durP1;ratioP1;P1;durP2;ratioP2;P2;SDS_P1;SDS_P2;PMS_P1;PMS_P2;Temp;Humidity;BMP_temperature;BMP_pressure;BME280_temperature;BME280_humidity;BME280_pressure;Samples;Min_cycle;Max_cycle;Signal;HPM_P1;HPM_P2
2023/09/18 00:01:05;;;;;;;;;3.75;3.25;;;;;21.54;56.93;100160.31;5082781;28;45245;-71
2023/09/18 00:03:30;;;;;;;;;1.25;1.25;;;;;21.53;56.20;100161.28;5064251;28;47613;-71
2023/09/18 00:05:56;;;;;;;;;2.75;2.00;;;;;21.53;56.38;100165.78;5082556;28;45150;-71
2023/09/18 00:08:21;;;;;;;;;2.75;2.75;;;;;21.50;56.61;100160.66;5082623;28;45466;-71
2023/09/18 00:10:53;;;;;;;;;2.00;2.00;;;;;21.47;57.12;100164.41;5082394;28;45490;-71
2023/09/18 00:13:19;;;;;;;;;3.00;3.00;;;;;21.45;56.65;100162.78;5082534;28;45355;-71
2023/09/18 00:15:46;;;;;;;;;2.75;2.75;;;;;21.41;56.55;100146.13;5081751;28;45382;-70
2023/09/18 00:18:13;;;;;;;;;2.00;2.00;;;;;21.38;56.80;100147.19;5082360;28;45248;-71
2023/09/18 00:20:39;;;;;;;;;2.25;2.00;;;;;21.36;56.81;100143.75;5074469;28;45560;-71
2023/09/18 00:23:05;;;;;;;;;4.25;1.00;;;;;21.33;56.76;100137.75;5063822;28;47771;-71
2023/09/18 00:25:31;;;;;;;;;2.00;2.00;;;;;21.29;56.74;100131.75;5081915;28;45331;-71
2023/09/18 00:27:56;;;;;;;;;2.50;1.75;;;;;21.22;57.03;100131.34;5080385;28;45273;-71
2023/09/18 00:30:22;;;;;;;;;3.00;2.00;;;;;21.21;56.88;100142.97;5082044;28;45292;-71
2023/09/18 00:32:49;;;;;;;;;4.75;3.00;;;;;21.18;56.81;100145.00;5063440;28;46731;-71
2023/09/18 00:35:15;;;;;;;;;1.00;1.00;;;;;21.15;57.26;100150.56;5082150;28;45277;-70
2023/09/18 00:37:40;;;;;;;;;3.50;3.50;;;;;21.14;57.13;100143.50;5081940;28;45166;-71
2023/09/18 00:40:07;;;;;;;;;1.25;1.00;;;;;21.07;57.16;100133.25;5081988;28;45182;-70
2023/09/18 00:42:32;;;;;;;;;4.00;3.00;;;;;21.05;57.08;100142.31;5081744;28;46455;-71
2023/09/18 00:44:57;;;;;;;;;2.00;2.00;;;;;21.05;56.62;100167.19;5081834;28;45306;-71
2023/09/18 00:47:23;;;;;;;;;2.00;2.00;;;;;21.01;56.85;100164.84;5081969;28;45287;-71
2023/09/18 00:49:51;;;;;;;;;2.50;2.50;;;;;20.99;57.21;100158.75;5080172;28;45546;-71
2023/09/18 00:52:18;;;;;;;;;3.50;1.50;;;;;20.94;57.25;100151.03;5081259;28;45321;-71
2023/09/18 00:54:46;;;;;;;;;3.00;2.00;;;;;20.92;57.46;100153.81;5076379;27;45944;-71
2023/09/18 00:57:11;;;;;;;;;3.00;2.00;;;;;20.91;56.72;100156.59;5101744;27;45382;-71
2023/09/18 00:59:38;;;;;;;;;2.00;1.75;;;;;20.86;57.49;100153.38;5102171;27;45593;-71
2023/09/18 01:02:03;;;;;;;;;2.00;2.00;;;;;20.84;57.24;100157.97;5101918;27;46269;-71
2023/09/18 01:04:29;;;;;;;;;2.25;2.25;;;;;20.83;57.20;100157.13;5101510;27;45231;-70
2023/09/18 01:06:56;;;;;;;;;1.25;1.00;;;;;20.78;57.53;100144.06;5101993;27;45305;-70
2023/09/18 01:09:22;;;;;;;;;4.00;2.25;;;;;20.77;57.26;100153.03;5102005;27;45525;-70
2023/09/18 01:12:03;;;;;;;;;3.25;1.75;;;;;20.75;57.61;100160.31;5101150;27;45517;-71
2023/09/18 01:14:42;;;;;;;;;2.00;2.00;;;;;20.73;57.58;100162.19;5101887;27;45165;-71
2023/09/18 01:17:10;;;;;;;;;1.25;1.25;;;;;20.68;57.21;100150.06;5101875;27;45408;-71
2023/09/18 01:19:44;;;;;;;;;1.00;1.00;;;;;20.67;57.72;100151.91;5081509;27;45408;-71
2023/09/18 01:22:12;;;;;;;;;2.00;2.00;;;;;20.66;57.28;100157.34;5081449;28;45485;-71
2023/09/18 01:24:38;;;;;;;;;1.75;1.75;;;;;20.59;57.54;100159.53;5062705;28;45273;-71
2023/09/18 01:27:05;;;;;;;;;2.50;2.50;;;;;20.59;57.70;100162.19;5079961;28;45515;-70
2023/09/18 01:29:31;;;;;;;;;2.25;2.25;;;;;20.57;58.09;100158.81;5079798;28;45438;-71
2023/09/18 01:31:57;;;;;;;;;4.00;2.00;;;;;20.55;58.00;100158.03;5080870;28;46307;-71
2023/09/18 01:34:26;;;;;;;;;1.50;1.50;;;;;20.54;57.74;100161.66;5062976;28;45565;-71
2023/09/18 01:36:52;;;;;;;;;1.25;1.25;;;;;20.54;57.70;100161.66;5081137;28;45229;-70
2023/09/18 01:39:20;;;;;;;;;1.00;1.00;;;;;20.48;58.33;100148.72;5081080;28;45355;-70
2023/09/18 01:41:47;;;;;;;;;1.50;1.50;;;;;20.45;57.59;100155.09;5080642;28;46388;-70
2023/09/18 01:44:13;;;;;;;;;2.50;1.75;;;;;20.46;58.30;100157.69;5081059;28;45367;-71
2023/09/18 01:46:39;;;;;;;;;2.50;1.00;;;;;20.43;57.99;100155.22;5079638;28;45920;-70
2023/09/18 01:49:04;;;;;;;;;3.00;2.00;;;;;20.44;58.24;100145.41;5080972;28;45338;-70
2023/09/18 01:51:30;;;;;;;;;1.25;1.25;;;;;20.42;58.16;100164.16;5080864;28;45413;-70
2023/09/18 01:53:56;;;;;;;;;3.00;1.25;;;;;20.38;58.32;100145.81;5080780;28;45190;-70
2023/09/18 01:56:23;;;;;;;;;2.00;0.25;;;;;20.39;57.80;100145.69;5062189;28;45284;-70
2023/09/18 01:58:48;;;;;;;;;1.00;1.00;;;;;20.39;58.09;100153.69;5080821;28;45182;-70
2023/09/18 02:01:14;;;;;;;;;3.75;2.50;;;;;20.36;58.19;100143.22;5079680;27;46631;-70
2023/09/18 02:03:41;;;;;;;;;2.75;2.50;;;;;20.37;58.66;100152.09;5079420;28;46007;-70
2023/09/18 02:06:08;;;;;;;;;2.00;2.00;;;;;20.36;59.02;100166.38;5080814;28;45609;-70
2023/09/18 02:08:34;;;;;;;;;2.00;2.00;;;;;20.34;58.60;100158.47;5079223;28;45358;-70
2023/09/18 02:10:59;;;;;;;;;0.67;0.67;;;;;20.38;58.71;100162.66;5080229;28;46579;-70
2023/09/18 02:13:25;;;;;;;;;1.50;1.50;;;;;20.38;58.59;100172.47;5080670;28;45236;-70
2023/09/18 02:15:50;;;;;;;;;1.75;1.75;;;;;20.35;58.86;100170.88;5080798;28;45252;-69
2023/09/18 02:18:15;;;;;;;;;3.75;2.75;;;;;20.38;58.38;100180.50;5080298;28;45242;-70
2023/09/18 02:20:42;;;;;;;;;2.00;2.00;;;;;20.37;58.74;100168.09;5080508;28;45507;-70
2023/09/18 02:23:07;;;;;;;;;2.00;2.00;;;;;20.34;58.31;100166.50;5080434;28;45335;-69
2023/09/18 02:25:32;;;;;;;;;3.25;2.25;;;;;20.35;59.00;100173.53;5089969;27;45253;-70
2023/09/18 02:27:58;;;;;;;;;1.50;1.50;;;;;20.35;58.37;100178.88;5100600;27;45247;-70
2023/09/18 02:30:23;;;;;;;;;2.50;2.00;;;;;20.35;59.17;100172.66;5093724;27;57568;-70
2023/09/18 02:32:49;;;;;;;;;2.50;2.50;;;;;20.33;59.02;100174.59;5078603;28;45409;-70
2023/09/18 02:35:14;;;;;;;;;3.25;3.25;;;;;20.32;58.53;100184.38;5080574;28;45220;-69
2023/09/18 02:37:39;;;;;;;;;2.00;2.00;;;;;20.30;58.51;100191.63;5078076;28;45256;-72
2023/09/18 02:40:05;;;;;;;;;2.00;2.00;;;;;20.29;59.10;100185.44;5080176;28;45446;-72
2023/09/18 02:42:31;;;;;;;;;3.00;2.00;;;;;20.30;59.08;100188.97;5061721;28;45379;-72
2023/09/18 02:44:56;;;;;;;;;3.25;3.25;;;;;20.26;58.85;100169.66;5080390;28;45312;-72
2023/09/18 02:47:21;;;;;;;;;2.75;2.25;;;;;20.29;59.21;100174.78;5080184;28;45600;-72
2023/09/18 02:49:47;;;;;;;;;3.00;3.00;;;;;20.29;58.92;100168.59;5079919;28;54740;-72
2023/09/18 02:52:12;;;;;;;;;4.00;4.00;;;;;20.33;59.29;100172.78;5080094;28;45317;-72
2023/09/18 02:54:37;;;;;;;;;3.75;3.75;;;;;20.32;59.39;100171.06;5080191;28;45356;-71
2023/09/18 02:57:03;;;;;;;;;4.00;3.00;;;;;20.36;59.54;100177.06;5079419;28;45427;-71
2023/09/18 02:59:28;;;;;;;;;3.25;2.75;;;;;20.39;59.30;100176.84;5079899;28;45309;-71
2023/09/18 03:01:53;;;;;;;;;4.75;4.75;;;;;20.38;59.14;100160.00;5079913;28;45253;-71
2023/09/18 03:04:19;;;;;;;;;3.25;3.00;;;;;20.39;58.84;100161.69;5080061;28;45501;-71
2023/09/18 03:06:45;;;;;;;;;3.25;3.25;;;;;20.42;58.82;100164.16;5079892;28;45537;-71
2023/09/18 03:09:11;;;;;;;;;4.00;3.00;;;;;20.44;58.94;100166.75;5079977;28;45552;-71
2023/09/18 03:11:36;;;;;;;;;5.75;3.75;;;;;20.45;59.31;100163.97;5079585;28;45224;-72
2023/09/18 03:14:01;;;;;;;;;4.50;3.25;;;;;20.45;59.30;100161.31;5061701;28;45486;-73
2023/09/18 03:16:26;;;;;;;;;4.00;3.25;;;;;20.44;59.40;100156.91;5079680;28;45206;-71
2023/09/18 03:18:52;;;;;;;;;3.50;2.00;;;;;20.47;59.62;100155.88;5079344;28;55324;-71
2023/09/18 03:21:17;;;;;;;;;2.75;2.75;;;;;20.48;58.95;100157.59;5079717;28;45163;-71
2023/09/18 03:23:42;;;;;;;;;3.00;3.00;;;;;20.50;59.31;100162.81;5080086;28;45142;-71
2023/09/18 03:26:08;;;;;;;;;3.25;2.25;;;;;20.52;58.97;100159.09;5079236;28;45341;-71
2023/09/18 03:28:33;;;;;;;;;5.25;3.50;;;;;20.47;58.85;100153.19;5061395;28;45917;-71
2023/09/18 03:30:58;;;;;;;;;4.00;4.00;;;;;20.52;59.45;100159.09;5059231;27;45252;-71
2023/09/18 03:33:24;;;;;;;;;3.50;3.00;;;;;20.53;58.87;100162.63;5100378;27;45244;-71
2023/09/18 03:35:51;;;;;;;;;5.00;3.50;;;;;20.53;59.05;100158.13;5098482;27;49872;-71
2023/09/18 03:38:16;;;;;;;;;3.75;3.75;;;;;20.55;59.38;100152.69;5099996;27;46492;-71
2023/09/18 03:40:43;;;;;;;;;2.00;2.00;;;;;20.55;58.98;100144.69;5099533;27;45304;-72
2023/09/18 03:43:09;;;;;;;;;3.75;3.75;;;;;20.55;59.04;100144.69;5100057;27;45377;-71
2023/09/18 03:45:34;;;;;;;;;3.00;2.75;;;;;20.57;58.80;100148.97;5099755;27;45386;-71
2023/09/18 03:47:59;;;;;;;;;6.50;2.25;;;;;20.60;59.37;100138.09;5081172;27;50684;-71
2023/09/18 03:50:27;;;;;;;;;2.75;2.75;;;;;20.57;59.01;100134.78;5100934;27;56318;-71
2023/09/18 03:52:52;;;;;;;;;2.00;2.00;;;;;20.60;58.97;100131.91;5102816;27;45276;-71
2023/09/18 03:55:17;;;;;;;;;3.50;3.50;;;;;20.62;59.50;100138.00;5078487;28;45494;-71
2023/09/18 03:57:44;;;;;;;;;2.00;2.00;;;;;20.61;59.36;100145.13;5082403;28;45236;-71
2023/09/18 04:00:11;;;;;;;;;2.50;2.50;;;;;20.60;59.44;100142.56;5082465;28;45316;-71
2023/09/18 04:02:36;;;;;;;;;2.75;2.75;;;;;20.64;59.31;100138.75;5082784;28;45261;-71
2023/09/18 04:05:02;;;;;;;;;5.50;3.25;;;;;20.62;59.20;100140.66;5082451;28;45154;-71
2023/09/18 04:07:28;;;;;;;;;2.25;1.25;;;;;20.63;59.01;100140.56;5082595;28;46212;-71
2023/09/18 04:09:53;;;;;;;;;4.25;3.00;;;;;20.65;59.29;100144.94;5082529;28;45320;-71
2023/09/18 04:12:18;;;;;;;;;4.25;3.25;;;;;20.66;58.73;100144.84;5082541;28;45274;-71
2023/09/18 04:14:44;;;;;;;;;3.50;2.00;;;;;20.63;59.37;100140.56;5082678;28;45526;-71
2023/09/18 04:17:09;;;;;;;;;5.25;5.25;;;;;20.68;58.67;100152.75;5082197;28;46014;-71
2023/09/18 04:19:35;;;;;;;;;2.00;2.00;;;;;20.67;59.12;100149.22;5082228;28;45375;-71
2023/09/18 04:22:00;;;;;;;;;2.25;2.25;;;;;20.70;58.88;100143.66;5082598;28;45379;-71
2023/09/18 04:24:26;;;;;;;;;3.00;1.00;;;;;20.70;59.21;100137.50;5082378;28;45383;-71
2023/09/18 04:26:51;;;;;;;;;2.75;2.75;;;;;20.70;59.20;100135.66;5081730;28;45298;-71
2023/09/18 04:29:18;;;;;;;;;2.00;2.00;;;;;20.72;59.18;100140.94;5082279;28;45168;-70
2023/09/18 04:31:43;;;;;;;;;3.00;2.00;;;;;20.73;58.92;100134.66;5082204;28;45500;-71
2023/09/18 04:34:10;;;;;;;;;4.00;4.00;;;;;20.72;58.99;100140.94;5082076;28;45239;-71
2023/09/18 04:36:37;;;;;;;;;3.00;2.00;;;;;20.74;59.56;100139.03;5082005;28;45418;-71
2023/09/18 04:39:04;;;;;;;;;4.00;3.00;;;;;20.71;59.45;100139.25;5081940;28;45345;-70
2023/09/18 04:41:29;;;;;;;;;5.50;2.50;;;;;20.71;58.92;100137.41;5080682;28;45405;-71
2023/09/18 04:43:55;;;;;;;;;1.75;1.75;;;;;20.70;58.86;100132.16;5081801;28;45248;-71
2023/09/18 04:46:20;;;;;;;;;3.00;3.00;;;;;20.72;59.43;100132.94;5081929;28;46128;-71
2023/09/18 04:48:45;;;;;;;;;3.00;2.00;;;;;20.71;59.37;100125.88;5081665;28;47127;-71
2023/09/18 04:51:12;;;;;;;;;4.00;4.00;;;;;20.70;59.40;100133.00;5063460;28;46779;-72
2023/09/18 04:53:37;;;;;;;;;4.50;3.50;;;;;20.72;58.92;100140.94;5081762;28;45236;-71
2023/09/18 04:56:03;;;;;;;;;3.00;3.00;;;;;20.69;58.88;100133.97;5081431;28;45308;-72
2023/09/18 04:58:29;;;;;;;;;4.00;2.50;;;;;20.70;59.32;100140.16;5081318;28;45205;-70
2023/09/18 05:00:59;;;;;;;;;3.50;3.50;;;;;20.72;58.88;100141.78;5063448;28;45362;-71
2023/09/18 05:03:26;;;;;;;;;4.25;3.75;;;;;20.70;59.23;100137.50;5060714;28;45330;-70
2023/09/18 05:05:52;;;;;;;;;3.00;3.00;;;;;20.71;59.15;100136.56;5081561;28;45440;-70
2023/09/18 05:08:19;;;;;;;;;5.50;3.50;;;;;20.69;59.01;100139.31;5081476;28;45255;-70
2023/09/18 05:10:44;;;;;;;;;3.00;3.00;;;;;20.70;59.05;100140.16;5081314;28;45395;-70
2023/09/18 05:13:11;;;;;;;;;3.00;3.00;;;;;20.68;59.36;100144.72;5081429;28;45597;-70
2023/09/18 05:15:37;;;;;;;;;3.25;3.25;;;;;20.68;58.96;100145.59;5081497;28;46382;-70
2023/09/18 05:18:03;;;;;;;;;5.75;4.75;;;;;20.70;58.92;100151.69;5080948;28;45284;-70
2023/09/18 05:20:30;;;;;;;;;3.50;2.00;;;;;20.71;59.35;100144.56;5081455;28;45429;-71
2023/09/18 05:22:57;;;;;;;;;6.25;6.25;;;;;20.69;59.33;100144.66;5079439;28;45614;-71
2023/09/18 05:25:25;;;;;;;;;5.25;4.75;;;;;20.69;59.11;100141.97;5080885;28;45436;-72
2023/09/18 05:27:56;;;;;;;;;6.50;6.00;;;;;20.69;58.95;100141.97;5080934;28;45566;-71
2023/09/18 05:30:29;;;;;;;;;3.00;3.00;;;;;20.70;59.46;100149.00;5081227;28;45271;-67
2023/09/18 05:33:04;;;;;;;;;4.75;3.75;;;;;20.67;59.10;100138.53;5062824;28;45405;-71
2023/09/18 05:35:29;;;;;;;;;3.25;3.00;;;;;20.70;59.36;100145.50;5079542;28;47218;-69
2023/09/18 05:37:57;;;;;;;;;3.50;3.50;;;;;20.68;59.45;100142.06;5080842;28;45470;-68
2023/09/18 05:40:22;;;;;;;;;2.25;2.00;;;;;20.64;59.34;100146.78;5081241;28;45339;-66
2023/09/18 05:42:47;;;;;;;;;6.50;5.00;;;;;20.63;59.50;100135.22;5080672;28;45233;-67
2023/09/18 05:45:14;;;;;;;;;4.00;3.25;;;;;20.64;59.06;100144.09;5062285;28;51555;-67
2023/09/18 05:47:40;;;;;;;;;8.25;4.00;;;;;20.65;59.16;100143.13;5080646;28;45241;-66
2023/09/18 05:50:07;;;;;;;;;6.25;5.00;;;;;20.67;59.39;100154.56;5079951;28;45481;-69
2023/09/18 05:52:33;;;;;;;;;5.75;4.00;;;;;20.66;59.43;100139.50;5080714;28;45360;-69
2023/09/18 05:55:00;;;;;;;;;5.00;3.50;;;;;20.63;59.51;100129.03;5080329;28;46578;-68
2023/09/18 05:57:27;;;;;;;;;5.25;3.75;;;;;20.63;59.49;100140.56;5080325;28;45268;-68
2023/09/18 05:59:52;;;;;;;;;5.25;4.00;;;;;20.63;59.23;100148.56;5080458;28;45256;-68
2023/09/18 06:02:18;;;;;;;;;5.25;5.25;;;;;20.63;59.63;100145.91;5079251;28;45382;-69
2023/09/18 06:04:43;;;;;;;;;5.75;4.25;;;;;20.66;59.50;100150.19;5080791;28;46071;-68
2023/09/18 06:07:09;;;;;;;;;5.75;5.00;;;;;20.64;59.26;100160.13;5080053;28;54036;-69
2023/09/18 06:09:34;;;;;;;;;6.00;6.00;;;;;20.61;59.69;100155.81;5080889;28;45230;-69
2023/09/18 06:12:00;;;;;;;;;4.00;4.00;;;;;20.62;59.55;100162.88;5078358;28;45335;-71
2023/09/18 06:14:25;;;;;;;;;5.75;5.00;;;;;20.63;59.18;100182.41;5069780;27;46021;-70
2023/09/18 06:16:51;;;;;;;;;5.00;5.00;;;;;20.63;59.71;100180.59;5057558;28;45433;-67
2023/09/18 06:19:19;;;;;;;;;6.75;5.75;;;;;20.63;59.34;100177.09;5072662;27;45554;-68
2023/09/18 06:21:45;;;;;;;;;5.00;4.00;;;;;20.62;59.57;100186.03;5076099;27;45414;-67
2023/09/18 06:24:10;;;;;;;;;6.25;6.25;;;;;20.63;59.19;100182.41;5080006;28;45299;-67
2023/09/18 06:26:36;;;;;;;;;7.75;6.25;;;;;20.61;59.40;100187.84;5079653;28;45460;-67
2023/09/18 06:29:02;;;;;;;;;7.25;7.25;;;;;20.62;59.29;100180.72;5062712;27;45337;-68
2023/09/18 06:31:28;;;;;;;;;6.50;5.25;;;;;20.58;59.40;100173.88;5081353;27;45414;-67
2023/09/18 06:33:53;;;;;;;;;9.50;8.00;;;;;20.60;59.33;100185.28;5079934;28;46357;-68
2023/09/18 06:36:19;;;;;;;;;7.00;5.00;;;;;20.61;59.15;100193.19;5078802;28;45267;-68
2023/09/18 06:38:44;;;;;;;;;5.50;5.50;;;;;20.59;60.01;100192.44;5082715;27;45166;-68
2023/09/18 06:41:09;;;;;;;;;7.25;6.25;;;;;20.59;59.28;100191.56;5082060;27;45359;-68
2023/09/18 06:43:35;;;;;;;;;8.75;7.75;;;;;20.60;59.67;100198.63;5098771;27;56548;-68
2023/09/18 06:46:00;;;;;;;;;8.50;7.00;;;;;20.58;59.87;100208.56;5098767;27;60924;-68
2023/09/18 06:48:25;;;;;;;;;5.75;5.00;;;;;20.59;60.11;100203.13;5082006;27;45269;-68
2023/09/18 06:50:50;;;;;;;;;6.25;6.00;;;;;20.56;60.10;100181.09;5078446;28;58543;-67
2023/09/18 06:53:16;;;;;;;;;7.75;5.75;;;;;20.57;59.94;100185.50;5079677;28;47249;-68
2023/09/18 06:55:41;;;;;;;;;10.50;8.25;;;;;20.57;59.54;100190.81;5088485;27;45402;-68
2023/09/18 06:58:07;;;;;;;;;9.00;8.00;;;;;20.59;59.57;100194.22;5100344;27;45473;-68
2023/09/18 07:00:32;;;;;;;;;6.75;6.75;;;;;20.60;59.46;100179.94;5100680;27;45435;-68
2023/09/18 07:02:57;;;;;;;;;8.00;6.25;;;;;20.61;59.34;100185.16;5081841;27;47249;-68
2023/09/18 07:05:23;;;;;;;;;7.50;7.50;;;;;20.64;59.53;100186.81;5100371;27;45534;-68
2023/09/18 07:07:48;;;;;;;;;8.25;7.50;;;;;20.68;59.35;100188.31;5099112;27;45371;-68
2023/09/18 07:10:14;;;;;;;;;12.00;10.00;;;;;20.67;59.53;100191.94;5100356;27;45380;-68
2023/09/18 07:12:39;;;;;;;;;8.50;8.50;;;;;20.72;59.50;100197.84;5096732;27;47193;-67
2023/09/18 07:15:06;;;;;;;;;9.25;7.25;;;;;20.75;59.70;100207.47;5091809;27;45300;-68
2023/09/18 07:17:31;;;;;;;;;12.00;8.75;;;;;20.77;59.60;100202.91;5083032;27;45243;-67
2023/09/18 07:20:00;;;;;;;;;6.25;6.25;;;;;20.77;59.68;100214.44;5094268;27;45468;-67
2023/09/18 07:22:25;;;;;;;;;9.50;8.25;;;;;20.83;59.57;100217.66;5075614;27;46809;-67
2023/09/18 07:24:50;;;;;;;;;8.25;7.00;;;;;20.83;59.56;100204.31;5095008;27;45379;-68
2023/09/18 07:27:16;;;;;;;;;10.00;8.75;;;;;20.84;60.09;100214.03;5083153;28;45539;-68
2023/09/18 07:29:41;;;;;;;;;15.75;15.50;;;;;20.87;59.47;100232.53;5082707;28;51014;-68
2023/09/18 07:32:07;;;;;;;;;12.25;11.75;;;;;20.87;59.74;100232.53;5083067;28;46005;-68
2023/09/18 07:34:32;;;;;;;;;40.25;32.75;;;;;20.88;59.96;100228.88;5081597;28;45277;-67
2023/09/18 07:36:58;;;;;;;;;191.75;171.75;;;;;20.89;60.02;100233.28;5082757;28;45236;-68
2023/09/18 07:39:23;;;;;;;;;19.00;15.25;;;;;20.90;59.63;100233.16;5064705;28;45362;-68
2023/09/18 07:41:48;;;;;;;;;10.25;10.00;;;;;20.90;59.62;100226.97;5082709;28;46028;-67
2023/09/18 07:44:19;;;;;;;;;8.50;8.50;;;;;20.91;59.49;100234.88;5081702;28;45785;-68
2023/09/18 07:46:44;;;;;;;;;9.25;8.75;;;;;20.95;60.01;100232.88;5082556;28;45198;-68
2023/09/18 07:49:10;;;;;;;;;8.00;7.25;;;;;20.95;60.18;100243.56;5082471;28;48505;-68
2023/09/18 07:51:35;;;;;;;;;10.25;8.00;;;;;20.94;59.62;100233.81;5092619;27;49782;-68
2023/09/18 07:54:00;;;;;;;;;9.25;8.00;;;;;20.96;59.96;100226.59;5092723;27;45486;-68
2023/09/18 07:56:27;;;;;;;;;8.00;8.00;;;;;20.90;59.80;100224.31;5082510;28;45365;-67
2023/09/18 07:58:52;;;;;;;;;8.50;8.50;;;;;21.01;59.76;100234.28;5081320;28;45587;-67
2023/09/18 08:01:18;;;;;;;;;9.50;8.25;;;;;20.97;59.65;100233.63;5082563;28;45380;-67
2023/09/18 08:03:43;;;;;;;;;9.25;8.75;;;;;21.03;59.66;100233.25;5064346;28;45254;-67
2023/09/18 08:06:08;;;;;;;;;2.00;2.00;;;;;21.07;59.75;100234.75;5082744;28;45398;-67
2023/09/18 08:08:33;;;;;;;;;10.75;10.75;;;;;21.11;60.09;100230.91;5082527;28;45300;-67
2023/09/18 08:11:06;;;;;;;;;12.25;9.50;;;;;21.14;59.64;100239.69;5082112;28;45415;-67
2023/09/18 08:13:32;;;;;;;;;8.75;7.00;;;;;21.17;60.24;100234.13;5082385;28;45415;-67
2023/09/18 08:15:57;;;;;;;;;9.00;9.00;;;;;21.21;59.72;100230.31;5060812;28;45341;-68
2023/09/18 08:18:26;;;;;;;;;6.75;6.75;;;;;21.26;59.83;100238.84;5081727;28;45245;-67
2023/09/18 08:20:51;;;;;;;;;8.50;8.50;;;;;21.29;59.67;100227.94;5080776;28;46279;-67
2023/09/18 08:23:17;;;;;;;;;9.00;8.00;;;;;21.30;59.89;100228.84;5082269;28;45311;-66
2023/09/18 08:25:42;;;;;;;;;8.00;8.00;;;;;21.32;59.65;100225.09;5081831;28;45166;-66
2023/09/18 08:28:07;;;;;;;;;10.75;9.00;;;;;21.32;59.78;100233.09;5082279;28;45522;-66
2023/09/18 08:30:33;;;;;;;;;5.50;5.50;;;;;21.41;59.14;100229.81;5063979;28;46441;-66
2023/09/18 08:32:59;;;;;;;;;6.50;6.50;;;;;21.45;59.35;100232.28;5082228;28;45250;-66
2023/09/18 08:35:28;;;;;;;;;8.00;6.00;;;;;21.49;59.08;100247.97;5081702;28;45421;-66
2023/09/18 08:37:54;;;;;;;;;6.50;5.00;;;;;21.54;59.06;100228.97;5082108;28;45479;-66
2023/09/18 08:40:19;;;;;;;;;6.50;6.00;;;;;21.56;59.48;100235.13;5063236;28;47120;-66
2023/09/18 08:42:47;;;;;;;;;10.25;7.25;;;;;21.57;59.31;100240.34;5082111;28;45434;-66
2023/09/18 08:45:21;;;;;;;;;8.00;8.00;;;;;21.62;59.20;100245.34;5081850;28;45228;-66
2023/09/18 08:47:47;;;;;;;;;8.00;7.25;;;;;21.65;58.84;100250.50;5081986;28;45449;-67
2023/09/18 08:50:15;;;;;;;;;8.00;8.00;;;;;21.69;58.58;100238.63;5081733;28;45274;-66
2023/09/18 08:52:41;;;;;;;;;8.75;7.25;;;;;21.75;58.79;100240.03;5081930;28;45507;-67
2023/09/18 08:55:07;;;;;;;;;6.50;6.00;;;;;21.77;58.65;100230.06;5081527;28;45362;-67
2023/09/18 08:57:35;;;;;;;;;9.50;8.25;;;;;21.85;58.51;100237.59;5080264;28;45740;-67
2023/09/18 09:00:06;;;;;;;;;8.25;7.75;;;;;21.90;59.11;100243.47;5079806;28;47116;-67
2023/09/18 09:02:32;;;;;;;;;8.25;8.00;;;;;21.96;58.52;100237.69;5081776;28;45332;-67
2023/09/18 09:04:58;;;;;;;;;7.00;7.00;;;;;22.01;58.52;100234.69;5081771;28;45411;-68
2023/09/18 09:07:23;;;;;;;;;7.00;7.00;;;;;22.06;58.25;100220.03;5080212;28;45622;-68
2023/09/18 09:09:49;;;;;;;;;10.00;8.00;;;;;22.12;58.36;100226.75;5081595;28;45442;-67
2023/09/18 09:12:14;;;;;;;;;7.00;7.00;;;;;22.21;58.05;100220.75;5081374;28;45368;-67
2023/09/18 09:14:41;;;;;;;;;7.25;7.00;;;;;22.24;58.12;100227.72;5069958;28;45344;-67
2023/09/18 09:17:07;;;;;;;;;8.75;7.75;;;;;22.29;57.80;100200.59;5081356;28;45458;-68
2023/09/18 09:19:42;;;;;;;;;7.00;7.00;;;;;22.34;57.99;100207.34;5081206;28;45461;-67
2023/09/18 09:22:09;;;;;;;;;7.25;6.50;;;;;22.43;57.66;100218.38;5080041;28;45254;-67
2023/09/18 09:24:43;;;;;;;;;5.00;4.50;;;;;22.44;57.91;100215.59;5081084;28;45253;-67
2023/09/18 09:27:10;;;;;;;;;5.75;4.00;;;;;22.51;57.97;100221.38;5080881;28;45182;-68
2023/09/18 09:29:38;;;;;;;;;7.75;7.75;;;;;22.54;57.75;100224.69;5079774;28;47566;-68
2023/09/18 09:32:17;;;;;;;;;6.50;6.25;;;;;22.62;57.06;100226.78;5081206;28;45324;-68
2023/09/18 09:34:46;;;;;;;;;6.75;6.00;;;;;22.64;57.49;100226.66;5081369;28;45327;-68
2023/09/18 09:37:12;;;;;;;;;8.00;6.00;;;;;22.68;57.56;100237.06;5081629;27;45292;-68
2023/09/18 09:39:50;;;;;;;;;6.00;5.75;;;;;22.76;57.16;100239.16;5101657;27;46361;-68
2023/09/18 09:42:24;;;;;;;;;8.00;7.50;;;;;22.76;56.90;100243.69;5082714;27;45279;-67
2023/09/18 09:45:05;;;;;;;;;6.50;6.00;;;;;22.84;57.13;100233.25;5084429;27;45357;-67
2023/09/18 09:47:35;;;;;;;;;7.25;7.25;;;;;22.88;56.75;100245.47;5100292;27;45534;-67
2023/09/18 09:50:06;;;;;;;;;7.00;5.50;;;;;22.97;56.68;100242.09;5101370;27;45330;-67
2023/09/18 09:52:33;;;;;;;;;7.00;6.00;;;;;23.01;56.02;100242.72;5101470;27;45339;-67
2023/09/18 09:54:59;;;;;;;;;6.25;5.50;;;;;23.07;56.32;100252.09;5065678;28;45416;-67
2023/09/18 09:57:24;;;;;;;;;6.25;6.25;;;;;23.12;56.33;100253.50;5080573;28;45456;-67
2023/09/18 09:59:49;;;;;;;;;6.25;5.50;;;;;23.14;56.36;100243.50;5080634;28;46182;-66
2023/09/18 10:02:19;;;;;;;;;8.25;6.00;;;;;23.21;56.32;100258.19;5080798;28;47030;-66
2023/09/18 10:04:48;;;;;;;;;6.00;5.00;;;;;23.29;56.26;100248.72;5080323;28;45291;-67
2023/09/18 10:07:15;;;;;;;;;8.75;6.00;;;;;23.37;55.76;100257.03;5080561;28;45407;-67
2023/09/18 10:09:42;;;;;;;;;5.75;5.75;;;;;23.42;55.83;100252.19;5079052;28;46806;-67
2023/09/18 10:12:11;;;;;;;;;3.75;3.75;;;;;23.48;55.50;100264.25;5080295;28;45260;-67
2023/09/18 10:14:42;;;;;;;;;6.75;5.25;;;;;23.56;55.58;100250.25;5068990;28;45455;-68
2023/09/18 10:17:19;;;;;;;;;6.75;6.00;;;;;23.60;55.86;100265.16;5072888;27;45484;-67
2023/09/18 10:19:54;;;;;;;;;7.50;6.75;;;;;23.72;55.24;100250.78;5079014;28;47272;-67
2023/09/18 10:22:39;;;;;;;;;6.75;5.75;;;;;23.81;55.47;100249.22;5080642;28;45240;-67
2023/09/18 10:25:17;;;;;;;;;7.25;6.00;;;;;23.92;55.21;100249.25;5080207;28;45223;-67
2023/09/18 10:27:44;;;;;;;;;6.75;5.00;;;;;24.06;55.14;100250.00;5080205;28;45322;-67
2023/09/18 10:30:12;;;;;;;;;7.00;7.00;;;;;24.18;55.15;100241.84;5080335;28;46395;-67
2023/09/18 10:32:40;;;;;;;;;7.75;7.00;;;;;24.23;55.32;100237.97;5080287;28;45183;-67
2023/09/18 10:35:12;;;;;;;;;6.75;5.25;;;;;24.42;54.40;100248.06;5079076;28;45489;-67
2023/09/18 10:37:37;;;;;;;;;6.00;6.00;;;;;24.51;54.84;100252.69;5080141;28;45293;-67
2023/09/18 10:40:08;;;;;;;;;7.75;6.50;;;;;24.63;54.37;100251.69;5078772;28;47175;-67
2023/09/18 10:42:35;;;;;;;;;6.00;6.00;;;;;24.72;54.05;100250.13;5079947;28;45348;-67
2023/09/18 10:45:04;;;;;;;;;7.25;7.25;;;;;24.82;54.13;100245.69;5080058;28;45331;-66
2023/09/18 10:47:31;;;;;;;;;6.50;5.25;;;;;24.92;54.17;100253.88;5078732;28;46078;-66
2023/09/18 10:49:56;;;;;;;;;6.75;6.75;;;;;25.07;54.28;100254.44;5079952;28;45502;-67
2023/09/18 10:52:22;;;;;;;;;6.25;6.25;;;;;25.24;54.16;100255.69;5079885;28;45385;-67
2023/09/18 10:54:48;;;;;;;;;5.00;5.00;;;;;25.45;54.04;100246.84;5080220;28;45230;-67
2023/09/18 10:57:13;;;;;;;;;8.00;6.00;;;;;25.68;53.76;100255.63;5079510;28;45342;-66
2023/09/18 10:59:48;;;;;;;;;7.00;5.00;;;;;25.91;53.36;100242.03;5081899;28;45435;-67
2023/09/18 11:02:17;;;;;;;;;6.25;5.25;;;;;26.17;53.83;100255.09;5083751;28;45317;-67
2023/09/18 11:04:44;;;;;;;;;6.00;4.50;;;;;26.46;53.56;100257.88;5064788;28;45312;-66
2023/09/18 11:07:19;;;;;;;;;2.75;2.75;;;;;26.73;53.22;100259.13;5082417;28;45839;-67
2023/09/18 11:09:45;;;;;;;;;4.50;4.50;;;;;26.97;53.06;100252.50;5083210;28;46234;-66
2023/09/18 11:12:14;;;;;;;;;4.25;3.25;;;;;27.19;52.41;100291.81;5081769;28;45370;-67
2023/09/18 11:14:45;;;;;;;;;4.75;4.75;;;;;27.33;52.29;100274.38;5065189;28;45462;-66
2023/09/18 11:17:39;;;;;;;;;4.50;4.50;;;;;27.47;51.28;100256.94;5083259;28;45438;-68
2023/09/18 11:20:18;;;;;;;;;6.00;4.00;;;;;27.57;50.74;100271.25;5083295;28;45284;-67
2023/09/18 11:22:47;;;;;;;;;4.25;3.50;;;;;27.69;50.96;100264.72;5083065;28;45351;-67